Time,TemperatureF,DewpointF,PressureIn,WindDirection,WindDirectionDegrees,WindSpeedMPH,WindSpeedGustMPH,Humidity,HourlyPrecipIn,Conditions,Clouds,dailyrainin,SolarRadiationWatts/m^2,SoftwareType,DateUTC
2013-03-21 00:02:00,43.0,24.0,-100.00,WSW,250,7.0,22.0,47,0.00,,,0.00,0.000000,,2013-03-21 06:02:00,
2013-03-21 00:12:00,43.0,24.0,-100.00,WSW,250,7.0,22.0,47,0.00,,,0.00,0.000000,,2013-03-21 06:12:00,
2013-03-21 00:22:00,43.0,24.0,-100.00,WSW,250,7.0,22.0,47,0.00,,,0.00,0.000000,,2013-03-21 06:22:00,
2013-03-21 00:30:00,41.0,18.0,-100.00,WSW,253,11.0,17.0,39,0.00,,,0.00,0.000000,,2013-03-21 06:30:00,
2013-03-21 00:52:00,41.0,18.0,-100.00,WSW,253,11.0,17.0,39,0.00,,,0.00,0.000000,,2013-03-21 06:52:00,
2013-03-21 01:02:00,41.0,18.0,-100.00,WSW,253,11.0,17.0,39,0.00,,,0.00,0.000000,,2013-03-21 07:02:00,
2013-03-21 01:12:00,41.0,18.0,-100.00,WSW,253,11.0,17.0,39,0.00,,,0.00,0.000000,,2013-03-21 07:12:00,
2013-03-21 01:21:00,41.0,18.0,-100.00,WSW,253,11.0,17.0,39,0.00,,,0.00,0.000000,,2013-03-21 07:21:00,
2013-03-21 01:30:00,40.0,19.0,-100.00,WSW,238,10.0,18.0,43,0.00,,,0.00,0.000000,,2013-03-21 07:30:00,
2013-03-21 01:52:00,40.0,19.0,-100.00,WSW,238,10.0,18.0,43,0.00,,,0.00,0.000000,,2013-03-21 07:52:00,
2013-03-21 02:02:00,40.0,19.0,-100.00,WSW,238,10.0,18.0,43,0.00,,,0.00,0.000000,,2013-03-21 08:02:00,
2013-03-21 02:12:00,40.0,19.0,-100.00,WSW,238,10.0,18.0,43,0.00,,,0.00,0.000000,,2013-03-21 08:12:00,
2013-03-21 02:22:00,40.0,19.0,-100.00,WSW,238,10.0,18.0,43,0.00,,,0.00,0.000000,,2013-03-21 08:22:00,
2013-03-21 02:30:00,39.0,19.0,-100.00,WSW,249,12.0,19.0,45,0.00,,,0.00,0.000000,,2013-03-21 08:30:00,
2013-03-21 02:52:00,39.0,19.0,-100.00,WSW,249,12.0,19.0,45,0.00,,,0.00,0.000000,,2013-03-21 08:52:00,
2013-03-21 03:02:00,39.0,19.0,-100.00,WSW,249,12.0,19.0,45,0.00,,,0.00,0.000000,,2013-03-21 09:02:00,
2013-03-21 03:11:00,39.0,19.0,-100.00,WSW,249,12.0,19.0,45,0.00,,,0.00,0.000000,,2013-03-21 09:11:00,
2013-03-21 03:21:00,39.0,19.0,-100.00,WSW,249,12.0,19.0,45,0.00,,,0.00,0.000000,,2013-03-21 09:21:00,
2013-03-21 03:30:00,39.0,19.0,-100.00,WSW,255,14.0,21.0,45,0.00,,,0.00,0.000000,,2013-03-21 09:30:00,
2013-03-21 03:53:00,39.0,19.0,-100.00,WSW,255,14.0,21.0,45,0.00,,,0.00,0.000000,,2013-03-21 09:53:00,
2013-03-21 04:02:00,39.0,19.0,-100.00,WSW,255,14.0,21.0,45,0.00,,,0.00,0.000000,,2013-03-21 10:02:00,
2013-03-21 04:12:00,39.0,19.0,-100.00,WSW,255,14.0,21.0,45,0.00,,,0.00,0.000000,,2013-03-21 10:12:00,
2013-03-21 04:22:00,39.0,19.0,-100.00,WSW,255,14.0,21.0,45,0.00,,,0.00,0.000000,,2013-03-21 10:22:00,
2013-03-21 04:30:00,38.0,18.0,-100.00,West,259,15.0,22.0,44,0.00,,,-99.99,0.000000,,2013-03-21 10:30:00,
2013-03-21 04:53:00,38.0,18.0,-100.00,West,259,15.0,22.0,44,0.00,,,-99.99,0.000000,,2013-03-21 10:53:00,
2013-03-21 05:02:00,38.0,18.0,-100.00,West,259,15.0,22.0,44,0.00,,,-99.99,0.000000,,2013-03-21 11:02:00,
2013-03-21 05:12:00,38.0,18.0,-100.00,West,259,15.0,22.0,44,0.00,,,-99.99,0.000000,,2013-03-21 11:12:00,
2013-03-21 05:22:00,38.0,18.0,-100.00,West,259,15.0,22.0,44,0.00,,,-99.99,0.000000,,2013-03-21 11:22:00,
2013-03-21 05:30:00,37.0,18.0,-100.00,WSW,256,13.0,21.0,45,0.00,,,0.00,0.000000,,2013-03-21 11:30:00,
2013-03-21 05:53:00,37.0,18.0,-100.00,WSW,256,13.0,21.0,45,0.00,,,0.00,0.000000,,2013-03-21 11:53:00,
2013-03-21 06:02:00,37.0,18.0,-100.00,WSW,256,13.0,21.0,45,0.00,,,0.00,0.000000,,2013-03-21 12:02:00,
2013-03-21 06:12:00,37.0,18.0,-100.00,WSW,256,13.0,21.0,45,0.00,,,0.00,0.000000,,2013-03-21 12:12:00,
2013-03-21 06:22:00,37.0,18.0,-100.00,WSW,256,13.0,21.0,45,0.00,,,0.00,0.000000,,2013-03-21 12:22:00,
2013-03-21 06:30:00,35.0,19.0,-100.00,West,267,8.0,19.0,51,0.00,,,0.00,0.000000,,2013-03-21 12:30:00,
2013-03-21 06:53:00,35.0,19.0,-100.00,West,267,8.0,19.0,51,0.00,,,0.00,0.000000,,2013-03-21 12:53:00,
2013-03-21 07:02:00,35.0,19.0,-100.00,West,267,8.0,19.0,51,0.00,,,0.00,0.000000,,2013-03-21 13:02:00,
2013-03-21 07:12:00,35.0,19.0,-100.00,West,267,8.0,19.0,51,0.00,,,0.00,0.000000,,2013-03-21 13:12:00,
2013-03-21 07:22:00,35.0,19.0,-100.00,West,267,8.0,19.0,51,0.00,,,0.00,0.000000,,2013-03-21 13:22:00,
2013-03-21 07:30:00,35.0,16.0,-100.00,WSW,258,13.0,22.0,45,0.00,,,0.00,0.000000,,2013-03-21 13:30:00,
2013-03-21 07:52:00,35.0,16.0,-100.00,WSW,258,13.0,22.0,45,0.00,,,0.00,0.000000,,2013-03-21 13:52:00,
2013-03-21 08:02:00,35.0,16.0,-100.00,WSW,258,13.0,22.0,45,0.00,,,0.00,0.000000,,2013-03-21 14:02:00,
2013-03-21 08:12:00,35.0,16.0,-100.00,WSW,258,13.0,22.0,45,0.00,,,0.00,0.000000,,2013-03-21 14:12:00,
2013-03-21 08:21:00,35.0,16.0,-100.00,WSW,258,13.0,22.0,45,0.00,,,0.00,0.000000,,2013-03-21 14:21:00,
2013-03-21 08:30:00,36.0,15.0,-100.00,WSW,245,12.0,20.0,41,0.00,,,0.00,45.000000,,2013-03-21 14:30:00,
2013-03-21 08:52:00,36.0,15.0,-100.00,WSW,245,12.0,20.0,41,0.00,,,0.00,45.000000,,2013-03-21 14:52:00,
2013-03-21 09:03:00,36.0,15.0,-100.00,WSW,245,12.0,20.0,41,0.00,,,0.00,45.000000,,2013-03-21 15:03:00,
2013-03-21 09:12:00,36.0,15.0,-100.00,WSW,245,12.0,20.0,41,0.00,,,0.00,45.000000,,2013-03-21 15:12:00,
2013-03-21 09:22:00,36.0,15.0,-100.00,WSW,245,12.0,20.0,41,0.00,,,0.00,45.000000,,2013-03-21 15:22:00,
2013-03-21 09:30:00,37.0,11.0,-100.00,West,260,15.0,26.0,34,0.00,,,0.00,253.000000,,2013-03-21 15:30:00,
2013-03-21 09:53:00,37.0,11.0,-100.00,West,260,15.0,26.0,34,0.00,,,0.00,253.000000,,2013-03-21 15:53:00,
2013-03-21 10:03:00,37.0,11.0,-100.00,West,260,15.0,26.0,34,0.00,,,0.00,253.000000,,2013-03-21 16:03:00,
2013-03-21 10:12:00,37.0,11.0,-100.00,West,260,15.0,26.0,34,0.00,,,0.00,253.000000,,2013-03-21 16:12:00,
2013-03-21 10:30:00,38.0,6.0,-100.00,West,273,21.0,31.0,26,0.00,,,0.00,497.000000,,2013-03-21 16:30:00,
2013-03-21 10:53:00,38.0,6.0,-100.00,West,273,21.0,31.0,26,0.00,,,0.00,497.000000,,2013-03-21 16:53:00,
2013-03-21 11:02:00,38.0,6.0,-100.00,West,273,21.0,31.0,26,0.00,,,0.00,497.000000,,2013-03-21 17:02:00,
2013-03-21 11:12:00,38.0,6.0,-100.00,West,273,21.0,31.0,26,0.00,,,0.00,497.000000,,2013-03-21 17:12:00,
2013-03-21 11:22:00,38.0,6.0,-100.00,West,273,21.0,31.0,26,0.00,,,0.00,497.000000,,2013-03-21 17:22:00,
2013-03-21 11:30:00,39.0,7.0,-100.00,WSW,254,18.0,34.0,26,0.00,,,0.00,731.000000,,2013-03-21 17:30:00,
2013-03-21 11:53:00,39.0,7.0,-100.00,WSW,254,18.0,34.0,26,0.00,,,0.00,731.000000,,2013-03-21 17:53:00,
2013-03-21 12:02:00,39.0,7.0,-100.00,WSW,254,18.0,34.0,26,0.00,,,0.00,731.000000,,2013-03-21 18:02:00,
2013-03-21 12:12:00,39.0,7.0,-100.00,WSW,254,18.0,34.0,26,0.00,,,0.00,731.000000,,2013-03-21 18:12:00,
2013-03-21 12:22:00,39.0,7.0,-100.00,WSW,254,18.0,34.0,26,0.00,,,0.00,731.000000,,2013-03-21 18:22:00,
2013-03-21 12:30:00,38.0,6.0,-100.00,WSW,255,18.0,32.0,26,0.00,,,0.00,748.000000,,2013-03-21 18:30:00,
2013-03-21 12:52:00,38.0,6.0,-100.00,WSW,255,18.0,32.0,26,0.00,,,0.00,748.000000,,2013-03-21 18:52:00,
2013-03-21 13:02:00,38.0,6.0,-100.00,WSW,255,18.0,32.0,26,0.00,,,0.00,748.000000,,2013-03-21 19:02:00,
2013-03-21 13:12:00,38.0,6.0,-100.00,WSW,255,18.0,32.0,26,0.00,,,0.00,748.000000,,2013-03-21 19:12:00,
2013-03-21 13:22:00,38.0,6.0,-100.00,WSW,255,18.0,32.0,26,0.00,,,0.00,748.000000,,2013-03-21 19:22:00,
2013-03-21 13:30:00,40.0,10.0,-100.00,WSW,249,22.0,35.0,28,0.00,,,0.00,819.000000,,2013-03-21 19:30:00,
2013-03-21 13:53:00,40.0,10.0,-100.00,WSW,249,22.0,35.0,28,0.00,,,0.00,819.000000,,2013-03-21 19:53:00,
2013-03-21 14:02:00,40.0,10.0,-100.00,WSW,249,22.0,35.0,28,0.00,,,0.00,819.000000,,2013-03-21 20:02:00,
2013-03-21 14:12:00,40.0,10.0,-100.00,WSW,249,22.0,35.0,28,0.00,,,0.00,819.000000,,2013-03-21 20:12:00,
2013-03-21 14:22:00,40.0,10.0,-100.00,WSW,249,22.0,35.0,28,0.00,,,0.00,819.000000,,2013-03-21 20:22:00,
2013-03-21 14:30:00,42.0,10.0,-100.00,West,261,16.0,34.0,27,0.00,,,0.00,925.000000,,2013-03-21 20:30:00,
2013-03-21 14:53:00,42.0,10.0,-100.00,West,261,16.0,34.0,27,0.00,,,0.00,925.000000,,2013-03-21 20:53:00,
2013-03-21 15:02:00,42.0,10.0,-100.00,West,261,16.0,34.0,27,0.00,,,0.00,925.000000,,2013-03-21 21:02:00,
2013-03-21 15:12:00,42.0,10.0,-100.00,West,261,16.0,34.0,27,0.00,,,0.00,925.000000,,2013-03-21 21:12:00,
2013-03-21 15:22:00,42.0,10.0,-100.00,West,261,16.0,34.0,27,0.00,,,0.00,925.000000,,2013-03-21 21:22:00,
2013-03-21 15:30:00,41.0,8.0,-100.00,WSW,249,20.0,31.0,25,0.00,,,0.00,753.000000,,2013-03-21 21:30:00,
2013-03-21 15:53:00,41.0,8.0,-100.00,WSW,249,20.0,31.0,25,0.00,,,0.00,753.000000,,2013-03-21 21:53:00,
2013-03-21 16:02:00,41.0,8.0,-100.00,WSW,249,20.0,31.0,25,0.00,,,0.00,753.000000,,2013-03-21 22:02:00,
2013-03-21 16:12:00,41.0,8.0,-100.00,WSW,249,20.0,31.0,25,0.00,,,0.00,753.000000,,2013-03-21 22:12:00,
2013-03-21 16:23:00,41.0,8.0,-100.00,WSW,249,20.0,31.0,25,0.00,,,0.00,753.000000,,2013-03-21 22:23:00,
2013-03-21 16:30:00,41.0,8.0,-100.00,WSW,252,19.0,32.0,25,0.00,,,0.00,876.000000,,2013-03-21 22:30:00,
2013-03-21 16:52:00,41.0,8.0,-100.00,WSW,252,19.0,32.0,25,0.00,,,0.00,876.000000,,2013-03-21 22:52:00,
2013-03-21 17:02:00,41.0,8.0,-100.00,WSW,252,19.0,32.0,25,0.00,,,0.00,876.000000,,2013-03-21 23:02:00,
2013-03-21 17:12:00,41.0,8.0,-100.00,WSW,252,19.0,32.0,25,0.00,,,0.00,876.000000,,2013-03-21 23:12:00,
2013-03-21 17:21:00,41.0,8.0,-100.00,WSW,252,19.0,32.0,25,0.00,,,0.00,876.000000,,2013-03-21 23:21:00,
2013-03-21 17:30:00,41.0,10.0,-100.00,WSW,252,16.0,28.0,28,0.00,,,0.00,609.000000,,2013-03-21 23:30:00,
2013-03-21 17:53:00,41.0,10.0,-100.00,WSW,252,16.0,28.0,28,0.00,,,0.00,609.000000,,2013-03-21 23:53:00,
2013-03-21 18:02:00,41.0,10.0,-100.00,WSW,252,16.0,28.0,28,0.00,,,0.00,609.000000,,2013-03-22 00:02:00,
2013-03-21 18:12:00,41.0,10.0,-100.00,WSW,252,16.0,28.0,28,0.00,,,0.00,609.000000,,2013-03-22 00:12:00,
2013-03-21 18:22:00,41.0,10.0,-100.00,WSW,252,16.0,28.0,28,0.00,,,0.00,609.000000,,2013-03-22 00:22:00,
2013-03-21 18:30:00,39.0,8.0,-100.00,WSW,252,13.0,23.0,27,0.00,,,0.00,368.000000,,2013-03-22 00:30:00,
2013-03-21 18:52:00,39.0,8.0,-100.00,WSW,252,13.0,23.0,27,0.00,,,0.00,368.000000,,2013-03-22 00:52:00,
2013-03-21 19:02:00,39.0,8.0,-100.00,WSW,252,13.0,23.0,27,0.00,,,0.00,368.000000,,2013-03-22 01:02:00,
2013-03-21 19:12:00,39.0,8.0,-100.00,WSW,252,13.0,23.0,27,0.00,,,0.00,368.000000,,2013-03-22 01:12:00,
2013-03-21 19:22:00,39.0,8.0,-100.00,WSW,252,13.0,23.0,27,0.00,,,0.00,368.000000,,2013-03-22 01:22:00,
2013-03-21 19:30:00,35.0,6.0,-100.00,WSW,254,15.0,21.0,29,0.00,,,0.00,182.000000,,2013-03-22 01:30:00,
2013-03-21 19:53:00,35.0,6.0,-100.00,WSW,254,15.0,21.0,29,0.00,,,0.00,182.000000,,2013-03-22 01:53:00,
2013-03-21 20:02:00,35.0,6.0,-100.00,WSW,254,15.0,21.0,29,0.00,,,0.00,182.000000,,2013-03-22 02:02:00,
2013-03-21 20:12:00,35.0,6.0,-100.00,WSW,254,15.0,21.0,29,0.00,,,0.00,182.000000,,2013-03-22 02:12:00,
2013-03-21 20:22:00,35.0,6.0,-100.00,WSW,254,15.0,21.0,29,0.00,,,0.00,182.000000,,2013-03-22 02:22:00,
2013-03-21 20:30:00,33.0,9.0,-100.00,WSW,245,7.0,18.0,36,0.00,,,0.00,3.000000,,2013-03-22 02:30:00,
2013-03-21 20:52:00,33.0,9.0,-100.00,WSW,245,7.0,18.0,36,0.00,,,0.00,3.000000,,2013-03-22 02:52:00,
2013-03-21 21:02:00,33.0,9.0,-100.00,WSW,245,7.0,18.0,36,0.00,,,0.00,3.000000,,2013-03-22 03:02:00,
2013-03-21 21:12:00,33.0,9.0,-100.00,WSW,245,7.0,18.0,36,0.00,,,0.00,3.000000,,2013-03-22 03:12:00,
2013-03-21 21:21:00,33.0,9.0,-100.00,WSW,245,7.0,18.0,36,0.00,,,0.00,3.000000,,2013-03-22 03:21:00,
2013-03-21 21:30:00,32.0,10.0,-100.00,WSW,237,6.0,12.0,40,0.00,,,0.00,0.000000,,2013-03-22 03:30:00,
2013-03-21 21:53:00,32.0,10.0,-100.00,WSW,237,6.0,12.0,40,0.00,,,0.00,0.000000,,2013-03-22 03:53:00,
2013-03-21 22:03:00,32.0,10.0,-100.00,WSW,237,6.0,12.0,40,0.00,,,0.00,0.000000,,2013-03-22 04:03:00,
2013-03-21 22:12:00,32.0,10.0,-100.00,WSW,237,6.0,12.0,40,0.00,,,0.00,0.000000,,2013-03-22 04:12:00,
2013-03-21 22:22:00,32.0,10.0,-100.00,WSW,237,6.0,12.0,40,0.00,,,0.00,0.000000,,2013-03-22 04:22:00,
2013-03-21 22:30:00,31.0,14.0,-100.00,WSW,255,6.0,14.0,48,0.00,,,0.00,0.000000,,2013-03-22 04:30:00,
2013-03-21 22:52:00,31.0,14.0,-100.00,WSW,255,6.0,14.0,48,0.00,,,0.00,0.000000,,2013-03-22 04:52:00,
2013-03-21 23:02:00,31.0,14.0,-100.00,WSW,255,6.0,14.0,48,0.00,,,0.00,0.000000,,2013-03-22 05:02:00,
2013-03-21 23:12:00,31.0,14.0,-100.00,WSW,255,6.0,14.0,48,0.00,,,0.00,0.000000,,2013-03-22 05:12:00,
2013-03-21 23:22:00,31.0,14.0,-100.00,WSW,255,6.0,14.0,48,0.00,,,0.00,0.000000,,2013-03-22 05:22:00,
2013-03-21 23:30:00,27.0,12.0,-100.00,WNW,292,5.0,8.0,52,0.00,,,0.00,0.000000,,2013-03-22 05:30:00,
2013-03-21 23:52:00,27.0,12.0,-100.00,WNW,292,5.0,8.0,52,0.00,,,0.00,0.000000,,2013-03-22 05:52:00,